Unidilla, Georgia
Current Conditions -  °F | °C
As of 11:15 AM on Monday 22 Dec 2014 (Local Time) from KPXE Reporting Station
Moderate Rain Moderate Rain  
Wind Chill: 11°   Ceiling: 400
Heat Index: 11°   Visibility: 2.5mi
Dew Point:   Wind: 6mph
Humidity: 91%   Direction: 70°ENE
Pressure: 30.03"   Gusts: NA
Location:  32.2533°N, 83.7537°W
Report Text: KPXE 221615Z AUTO 07005KT 2 1/2SM RA OVC004 11/09 A3003 RMK AO2 LTG DSNT SE AND S T01060092
Loading
Personal Weather Stations






























Interactive Weather Map New forecast layout! Learn more

10-Day Weather Forecast

Advertisements
Track Severe Weather on mobile